Time;durP1;ratioP1;P1;durP2;ratioP2;P2;SDS_P1;SDS_P2;PMS_P1;PMS_P2;Temp;Humidity;BMP_temperature;BMP_pressure;BME280_temperature;BME280_humidity;BME280_pressure;Samples;Min_cycle;Max_cycle;Signal;HPM_P1;HPM_P2
2022/09/20 04:11:43;;;;;;;0.40;0.40;;;;;;;10.32;71.37;101406.09;5067004;27;2059482;-81
2022/09/20 04:14:30;;;;;;;0.40;0.40;;;;;;;10.69;70.55;101431.50;5073606;28;20608;-80
2022/09/20 04:17:33;;;;;;;0.20;0.20;;;;;;;10.98;69.06;101433.00;5077131;28;20020;-85
2022/09/20 04:20:06;;;;;;;0.10;0.10;;;;;;;11.06;68.87;101436.16;5078616;28;20097;-80
2022/09/20 04:22:31;;;;;;;;;;;;;;;11.12;68.52;101437.69;5073120;28;20027;-80
2022/09/20 04:25:20;;;;;;;0.10;0.10;;;;;;;11.18;68.14;101429.66;5089352;28;19965;-80
2022/09/20 04:28:01;;;;;;;0.15;0.15;;;;;;;11.19;68.18;101432.19;5105996;28;20023;-82
2022/09/20 04:30:29;;;;;;;0.43;0.43;;;;;;;11.10;67.74;101411.81;5072919;28;20165;-79
2022/09/20 04:33:10;;;;;;;0.52;0.50;;;;;;;11.31;67.35;101430.88;5085219;28;20466;-91
2022/09/20 04:38:28;;;;;;;0.52;0.52;;;;;;;11.34;66.94;101420.38;5092963;28;20197;-92
2022/09/20 04:41:15;;;;;;;1.13;0.73;;;;;;;11.40;67.02;101433.09;5108781;28;20936;-82
2022/09/20 04:43:50;;;;;;;0.90;0.90;;;;;;;11.38;66.42;101442.66;5121816;28;20038;-81
2022/09/20 04:46:24;;;;;;;0.20;0.20;;;;;;;11.46;67.00;101434.59;5107137;28;20503;-80
2022/09/20 04:49:05;;;;;;;0.20;0.20;;;;;;;11.56;66.38;101433.31;5107772;28;20034;-90
2022/09/20 04:51:53;;;;;;;0.10;0.10;;;;;;;11.60;66.30;101437.50;5113438;28;20020;-92
2022/09/20 04:54:43;;;;;;;0.10;0.10;;;;;;;11.56;66.29;101443.69;5115506;28;20497;-78
2022/09/20 04:57:40;;;;;;;0.63;0.63;;;;;;;11.49;66.29;101439.66;5087361;28;20709;-85
2022/09/20 05:00:13;;;;;;;1.42;0.98;;;;;;;11.47;66.48;101438.88;5106250;28;20031;-93
2022/09/20 05:03:00;;;;;;;0.10;0.10;;;;;;;11.55;66.42;101454.97;5107742;28;20027;-90
2022/09/20 05:05:58;;;;;;;0.35;0.35;;;;;;;11.60;66.70;101455.66;5105455;28;20947;-89
2022/09/20 05:08:41;;;;;;;0.10;0.10;;;;;;;11.58;66.96;101467.78;5080909;27;20058;-83
2022/09/20 05:11:32;;;;;;;0.50;0.50;;;;;;;11.54;66.71;101462.81;5116877;28;20147;-82
2022/09/20 05:14:12;;;;;;;0.10;0.10;;;;;;;11.49;66.52;101457.78;5080480;28;20027;-90
2022/09/20 05:17:03;;;;;;;0.57;0.43;;;;;;;11.50;66.33;101459.47;5092344;28;20028;-91
2022/09/20 05:20:03;;;;;;;0.30;0.30;;;;;;;11.60;66.49;101472.91;5110495;28;20108;-90
2022/09/20 05:22:52;;;;;;;0.30;0.22;;;;;;;11.53;65.96;101441.25;5107566;28;20035;-86
2022/09/20 05:25:20;;;;;;;0.10;0.10;;;;;;;11.81;66.03;101466.09;5107231;28;20031;-80
2022/09/20 05:27:51;;;;;;;0.20;0.20;;;;;;;11.91;65.31;101464.81;5105343;28;20035;-83
2022/09/20 05:30:30;;;;;;;0.20;0.20;;;;;;;11.94;64.93;101462.06;5093056;28;20511;-84
2022/09/20 05:33:13;;;;;;;0.43;0.32;;;;;;;12.06;64.89;101467.59;5094155;28;20099;-88
2022/09/20 05:35:53;;;;;;;0.20;0.20;;;;;;;12.17;64.40;101461.94;5078214;28;20089;-90
2022/09/20 05:38:27;;;;;;;0.28;0.28;;;;;;;12.27;63.96;101463.25;5097169;28;20043;-82
2022/09/20 05:41:12;;;;;;;0.30;0.30;;;;;;;12.31;63.98;101440.63;5077780;28;20064;-92
2022/09/20 05:44:10;;;;;;;0.30;0.30;;;;;;;12.42;63.43;101453.13;5097595;28;20055;-92
2022/09/20 05:47:02;;;;;;;0.50;0.40;;;;;;;12.57;63.32;101449.84;5104607;28;20036;-95
2022/09/20 05:49:46;;;;;;;0.20;0.20;;;;;;;12.72;63.46;101459.56;5090656;28;20051;-86
2022/09/20 05:52:14;;;;;;;0.50;0.50;;;;;;;12.69;63.16;101453.69;5104309;28;20039;-86
2022/09/20 05:54:52;;;;;;;0.30;0.30;;;;;;;12.75;62.87;101451.63;5090705;28;20032;-87
2022/09/20 05:58:00;;;;;;;0.20;0.20;;;;;;;12.85;63.74;101463.28;5080927;28;20821;-89
2022/09/20 06:00:29;;;;;;;0.30;0.30;;;;;;;12.85;62.49;101452.91;5076631;28;20046;-88
2022/09/20 06:03:16;;;;;;;0.35;0.35;;;;;;;12.97;62.55;101466.25;5070557;28;20111;-89
2022/09/20 06:05:57;;;;;;;0.52;0.52;;;;;;;12.97;62.69;101461.88;5093034;28;20036;-84
2022/09/20 06:08:56;;;;;;;0.20;0.20;;;;;;;12.82;62.13;101432.28;5093061;28;20041;-81
2022/09/20 06:11:42;;;;;;;0.22;0.22;;;;;;;13.10;62.02;101454.41;5090236;28;20044;-89
2022/09/20 06:14:08;;;;;;;0.47;0.47;;;;;;;13.22;61.75;101466.84;5089100;28;20043;-83
2022/09/20 06:16:52;;;;;;;0.10;0.10;;;;;;;13.32;61.67;101468.09;5087845;28;20031;-86
2022/09/20 06:19:18;;;;;;;0.57;0.20;;;;;;;13.53;61.08;101470.59;5071938;28;20027;-75
2022/09/20 06:21:53;;;;;;;0.20;0.20;;;;;;;13.62;60.00;101472.75;5103654;28;20019;-82
2022/09/20 06:24:43;;;;;;;0.10;0.10;;;;;;;13.66;59.70;101466.47;5076288;28;20027;-79
2022/09/20 06:27:14;;;;;;;0.20;0.20;;;;;;;13.75;59.95;101463.44;5091296;28;20122;-84
2022/09/20 06:29:42;;;;;;;0.30;0.30;;;;;;;13.75;59.43;101450.44;5070902;28;20031;-86
2022/09/20 06:32:08;;;;;;;0.10;0.10;;;;;;;13.74;59.07;101449.59;5077730;28;20032;-83
2022/09/20 06:34:34;;;;;;;0.25;0.25;;;;;;;13.66;59.09;101407.50;5073465;28;20043;-85
2022/09/20 06:43:13;;;;;;;0.25;0.25;;;;;;;14.25;58.68;101447.06;5094749;28;20100;-84
2022/09/20 06:45:40;;;;;;;0.20;0.20;;;;;;;14.28;58.38;101441.72;5069442;28;20023;-87
2022/09/20 06:48:07;;;;;;;0.10;0.10;;;;;;;14.38;57.82;101445.53;5065006;28;20930;-89
2022/09/20 06:50:35;;;;;;;0.10;0.10;;;;;;;14.39;57.07;101435.94;5085518;28;20024;-82
2022/09/20 06:53:01;;;;;;;1.05;1.00;;;;;;;14.44;57.54;101442.59;5080539;28;20028;-92
2022/09/20 06:55:29;;;;;;;0.80;0.45;;;;;;;14.47;56.79;101434.66;5072094;28;20604;-86
2022/09/20 06:57:55;;;;;;;0.43;0.30;;;;;;;14.51;56.69;101433.56;5071131;28;20051;-83
2022/09/20 07:00:20;;;;;;;0.20;0.20;;;;;;;14.63;56.65;101440.72;5055738;28;20313;-82
2022/09/20 07:02:47;;;;;;;0.20;0.20;;;;;;;14.73;56.10;101442.84;5068874;28;20411;-91
2022/09/20 07:05:15;;;;;;;0.43;0.38;;;;;;;14.84;55.80;101453.53;5107305;28;20123;-89
2022/09/20 07:07:42;;;;;;;0.20;0.20;;;;;;;14.91;54.74;101442.72;5089730;28;20032;-90
2022/09/20 07:10:09;;;;;;;0.15;0.15;;;;;;;15.04;56.32;101445.47;5083888;28;20048;-85
2022/09/20 07:12:35;;;;;;;0.13;0.13;;;;;;;15.14;55.02;101444.09;5044842;28;20509;-82
2022/09/20 07:15:00;;;;;;;0.30;0.30;;;;;;;15.27;55.04;101446.00;5064818;28;20074;-85
2022/09/20 07:17:26;;;;;;;0.38;0.28;;;;;;;15.47;55.15;101448.34;5066092;28;20027;-91
2022/09/20 07:19:51;;;;;;;0.20;0.20;;;;;;;15.63;52.95;101437.88;5069700;28;20040;-93
2022/09/20 07:22:17;;;;;;;0.57;0.32;;;;;;;15.68;52.53;101433.25;5050590;28;20031;-82
2022/09/20 07:24:43;;;;;;;0.55;0.55;;;;;;;15.89;52.70;101450.28;5083057;28;20032;-91
2022/09/20 07:27:10;;;;;;;0.65;0.65;;;;;;;16.06;52.06;101447.53;5062775;28;20028;-80
2022/09/20 07:29:35;;;;;;;0.20;0.20;;;;;;;15.96;51.14;101458.59;5080353;28;20035;-91
2022/09/20 07:32:01;;;;;;;0.38;0.38;;;;;;;15.77;51.49;101446.63;5080061;28;20040;-85
2022/09/20 07:34:26;;;;;;;0.63;0.20;;;;;;;15.86;51.96;101450.47;5080852;28;20060;-79
2022/09/20 07:36:52;;;;;;;0.20;0.20;;;;;;;16.05;51.34;101448.47;5084324;28;20028;-94
2022/09/20 07:39:18;;;;;;;0.32;0.32;;;;;;;15.95;50.43;101449.94;5065419;28;20064;-86
2022/09/20 07:41:49;;;;;;;0.22;0.22;;;;;;;16.14;51.28;101449.69;5064146;28;20028;-87
2022/09/20 07:44:23;;;;;;;0.10;0.10;;;;;;;16.14;50.94;101449.69;5081819;28;20067;-89
2022/09/20 07:46:52;;;;;;;0.90;0.90;;;;;;;16.23;50.21;101449.16;5063835;28;20052;-81
2022/09/20 07:49:18;;;;;;;1.50;1.30;;;;;;;16.34;50.05;101448.50;5061611;28;20036;-81
2022/09/20 07:51:44;;;;;;;4.88;0.68;;;;;;;16.34;50.03;101441.53;5086967;28;20039;-88
2022/09/20 07:54:09;;;;;;;0.30;0.20;;;;;;;16.55;48.94;101459.44;5035070;28;20045;-80
2022/09/20 07:56:35;;;;;;;0.17;0.17;;;;;;;16.43;49.46;101416.63;5007752;28;20834;-87
2022/09/20 07:59:00;;;;;;;0.30;0.30;;;;;;;16.72;49.19;101434.94;5038770;28;20029;-86
2022/09/20 08:01:26;;;;;;;0.28;0.28;;;;;;;16.72;50.38;101441.00;5035584;28;20513;-86
2022/09/20 08:03:53;;;;;;;0.20;0.20;;;;;;;16.87;49.49;101432.19;5024967;28;20041;-90
2022/09/20 08:06:20;;;;;;;0.20;0.20;;;;;;;16.92;48.90;101445.00;5040672;28;20075;-84
2022/09/20 08:08:46;;;;;;;0.10;0.10;;;;;;;17.02;48.86;101445.25;5040410;28;20120;-89
2022/09/20 08:11:14;;;;;;;0.40;0.40;;;;;;;17.00;48.79;101452.31;5060102;28;20406;-88
2022/09/20 08:13:44;;;;;;;0.68;0.65;;;;;;;16.89;49.14;101447.78;5049929;28;20032;-85
2022/09/20 08:16:10;;;;;;;0.40;0.40;;;;;;;17.03;48.88;101457.38;5054275;28;20071;-86
2022/09/20 08:18:36;;;;;;;0.20;0.20;;;;;;;17.06;47.07;101420.59;5071836;28;20494;-86
2022/09/20 08:21:09;;;;;;;0.63;0.35;;;;;;;17.29;46.42;101440.03;5062028;28;20059;-87
2022/09/20 08:23:35;;;;;;;0.30;0.30;;;;;;;17.30;46.78;101436.47;5045513;28;20045;-86
2022/09/20 08:26:01;;;;;;;0.43;0.40;;;;;;;17.35;45.20;101430.00;5041063;28;20102;-85
2022/09/20 08:28:28;;;;;;;0.20;0.20;;;;;;;17.54;44.13;101431.44;5063197;28;20028;-88
2022/09/20 08:31:03;;;;;;;0.15;0.15;;;;;;;17.57;44.33;101424.22;5058145;28;20029;-86
2022/09/20 08:33:28;;;;;;;0.20;0.20;;;;;;;17.60;43.87;101433.63;5060140;28;20028;-88
2022/09/20 08:35:54;;;;;;;0.30;0.30;;;;;;;17.40;43.97;101412.25;5060783;28;20108;-85
2022/09/20 08:38:21;;;;;;;0.80;0.80;;;;;;;17.30;44.68;101408.53;5075252;28;20028;-88
2022/09/20 08:40:48;;;;;;;0.20;0.20;;;;;;;17.52;44.16;101431.53;5062534;28;20077;-91
2022/09/20 08:43:14;;;;;;;0.30;0.30;;;;;;;17.34;43.83;101436.19;5032434;28;20035;-88
2022/09/20 08:45:39;;;;;;;0.20;0.20;;;;;;;17.33;43.77;101431.06;5063157;28;20025;-84
2022/09/20 08:48:06;;;;;;;0.20;0.20;;;;;;;17.21;44.77;101453.63;5042837;28;20032;-83
2022/09/20 08:50:33;;;;;;;0.20;0.20;;;;;;;17.14;43.98;101437.47;5038858;28;20646;-82
2022/09/20 08:53:00;;;;;;;0.15;0.15;;;;;;;17.14;43.57;101410.47;5059754;28;20056;-89
2022/09/20 08:55:34;;;;;;;0.20;0.20;;;;;;;17.34;43.80;101425.72;5051478;28;20037;-84
2022/09/20 08:58:01;;;;;;;0.63;0.20;;;;;;;17.27;43.35;101421.81;5037724;28;20410;-78
2022/09/20 09:00:32;;;;;;;0.30;0.20;;;;;;;17.23;42.92;101435.19;5056697;28;20028;-81
2022/09/20 09:03:10;;;;;;;0.30;0.30;;;;;;;17.17;43.58;101403.28;5053936;28;20025;-80
2022/09/20 09:05:47;;;;;;;1.95;0.80;;;;;;;17.34;44.45;101428.34;5060856;28;20067;-81
2022/09/20 09:08:26;;;;;;;0.30;0.30;;;;;;;17.38;44.15;101440.28;5033700;28;20037;-82
2022/09/20 09:11:03;;;;;;;0.10;0.10;;;;;;;17.58;42.91;101420.66;5056784;28;20055;-81
2022/09/20 09:13:38;;;;;;;0.52;0.52;;;;;;;17.81;42.77;101421.81;5043045;28;20409;-81
2022/09/20 09:16:10;;;;;;;0.30;0.30;;;;;;;17.91;42.44;101427.28;5040814;28;20033;-82
2022/09/20 09:18:38;;;;;;;0.20;0.20;;;;;;;18.07;41.15;101417.44;5064694;28;20036;-85
2022/09/20 09:21:03;;;;;;;0.40;0.40;;;;;;;18.24;42.22;101409.25;5038680;28;20110;-82
2022/09/20 09:23:34;;;;;;;0.30;0.30;;;;;;;18.41;42.16;101405.50;5057363;28;20032;-82
2022/09/20 09:26:02;;;;;;;0.63;0.50;;;;;;;18.24;41.57;101408.44;5053494;28;20040;-81
2022/09/20 09:28:30;;;;;;;0.30;0.25;;;;;;;18.01;42.54;101413.47;5066241;28;20032;-79
2022/09/20 09:31:14;;;;;;;1.00;0.50;;;;;;;18.11;41.49;101402.38;5062211;28;20056;-84
2022/09/20 09:33:44;;;;;;;0.50;0.50;;;;;;;18.26;40.74;101396.06;5032051;28;20051;-81
2022/09/20 09:36:16;;;;;;;0.20;0.20;;;;;;;18.15;41.67;101393.34;5050524;28;20063;-80
2022/09/20 09:38:44;;;;;;;0.20;0.20;;;;;;;18.42;40.24;101396.69;5050014;28;20024;-80
2022/09/20 09:41:28;;;;;;;0.20;0.20;;;;;;;18.51;40.15;101401.28;5050272;28;20040;-82
2022/09/20 09:43:58;;;;;;;0.28;0.28;;;;;;;18.26;41.55;101370.69;5047849;28;20025;-83
2022/09/20 09:46:25;;;;;;;0.20;0.20;;;;;;;18.36;41.49;101373.53;5048918;28;20021;-85
2022/09/20 09:49:06;;;;;;;0.85;0.60;;;;;;;18.33;41.01;101386.84;5048853;28;20029;-84
2022/09/20 09:51:32;;;;;;;0.38;0.30;;;;;;;18.29;41.26;101385.41;5049323;28;20394;-82
2022/09/20 09:53:57;;;;;;;0.95;0.50;;;;;;;18.08;41.76;101384.22;5020395;28;20057;-82
2022/09/20 09:57:03;;;;;;;0.30;0.30;;;;;;;18.09;41.07;101383.28;5048733;28;20051;-88
2022/09/20 09:59:56;;;;;;;0.32;0.32;;;;;;;18.20;40.26;101386.03;5025948;28;20140;-84
2022/09/20 10:02:41;;;;;;;0.40;0.40;;;;;;;18.10;40.18;101380.59;5042383;28;20037;-86
2022/09/20 10:05:31;;;;;;;0.75;0.75;;;;;;;18.41;39.81;101392.41;5048891;28;20075;-85
2022/09/20 10:08:41;;;;;;;0.40;0.40;;;;;;;18.54;39.26;101390.56;5048609;28;20406;-82
2022/09/20 10:11:28;;;;;;;0.20;0.20;;;;;;;18.37;40.00;101383.06;5001984;28;20083;-81
2022/09/20 10:14:12;;;;;;;1.20;1.10;;;;;;;18.41;39.03;101392.41;5048755;28;20017;-83
2022/09/20 10:16:56;;;;;;;0.63;0.30;;;;;;;18.26;39.60;101390.81;5050694;28;20044;-85
2022/09/20 10:19:33;;;;;;;1.95;1.10;;;;;;;18.13;39.87;101395.22;5072090;28;20016;-83
2022/09/20 10:22:35;;;;;;;0.20;0.20;;;;;;;18.10;40.40;101391.06;5071855;28;20095;-82
2022/09/20 10:25:18;;;;;;;0.52;0.52;;;;;;;17.98;39.60;101384.84;5037580;28;20117;-90
2022/09/20 10:27:57;;;;;;;0.32;0.32;;;;;;;17.84;40.55;101379.72;5055647;28;20037;-91
2022/09/20 10:30:24;;;;;;;1.02;0.45;;;;;;;17.81;40.68;101374.69;5056857;28;20032;-82
2022/09/20 10:33:03;;;;;;;0.10;0.10;;;;;;;18.11;40.16;101379.63;5053055;28;20029;-89
2022/09/20 10:35:43;;;;;;;0.20;0.20;;;;;;;18.50;39.87;101381.28;5051260;28;20481;-93
2022/09/20 10:38:21;;;;;;;0.20;0.20;;;;;;;18.60;38.96;101365.75;5072795;28;20028;-80
2022/09/20 10:44:01;;;;;;;0.30;0.30;;;;;;;18.45;39.67;101391.22;5051159;28;20032;-83
2022/09/20 10:46:51;;;;;;;0.20;0.20;;;;;;;18.42;39.83;101386.22;5054853;28;20031;-90
2022/09/20 10:49:22;;;;;;;0.15;0.15;;;;;;;18.34;40.37;101372.78;5049391;28;20033;-92
2022/09/20 10:52:18;;;;;;;0.20;0.20;;;;;;;18.46;40.50;101398.13;5064341;28;20091;-88
2022/09/20 10:54:54;;;;;;;0.20;0.20;;;;;;;18.17;39.96;101379.19;5047933;28;20537;-85
2022/09/20 10:57:41;;;;;;;0.30;0.30;;;;;;;18.09;40.53;101393.75;5052926;28;20158;-90
2022/09/20 11:00:22;;;;;;;0.20;0.20;;;;;;;18.05;39.84;101391.34;5048397;28;20037;-84
2022/09/20 11:02:57;;;;;;;0.20;0.20;;;;;;;18.02;40.01;101378.47;5048216;28;20025;-85
2022/09/20 11:06:02;;;;;;;0.30;0.30;;;;;;;17.96;39.77;101365.78;5052648;28;20112;-89
2022/09/20 11:08:32;;;;;;;0.22;0.22;;;;;;;18.05;39.62;101386.13;5042289;28;20091;-91
2022/09/20 11:11:05;;;;;;;0.68;0.65;;;;;;;17.88;40.10;101385.56;5032446;28;20057;-81
2022/09/20 11:13:49;;;;;;;0.73;0.73;;;;;;;18.01;40.94;101395.13;5049414;28;20046;-86
2022/09/20 11:16:14;;;;;;;1.33;0.77;;;;;;;18.00;40.53;101383.00;5051415;28;20021;-93
2022/09/20 11:18:41;;;;;;;0.30;0.30;;;;;;;17.98;41.29;101384.00;5048764;28;20025;-84
2022/09/20 11:21:19;;;;;;;0.10;0.10;;;;;;;17.90;40.77;101368.00;5049502;28;20119;-83
2022/09/20 11:24:02;;;;;;;0.15;0.15;;;;;;;17.96;40.80;101389.34;5036841;28;20051;-80
2022/09/20 11:26:33;;;;;;;;;;;;;;;17.93;41.95;101388.75;5050982;28;20056;-80
2022/09/20 11:29:18;;;;;;;0.30;0.30;;;;;;;17.68;41.01;101350.25;5049534;28;19919;-92
2022/09/20 11:31:44;;;;;;;0.20;0.20;;;;;;;17.71;40.95;101360.56;5034284;28;20136;-87
2022/09/20 11:34:17;;;;;;;0.20;0.20;;;;;;;17.93;40.75;101376.47;5051851;28;20029;-95
2022/09/20 11:37:00;;;;;;;0.85;0.60;;;;;;;18.08;41.09;101381.59;5034776;28;20028;-89
2022/09/20 11:39:45;;;;;;;0.50;0.50;;;;;;;18.11;41.02;101377.00;5049520;28;20506;-84
2022/09/20 11:42:14;;;;;;;0.20;0.20;;;;;;;18.05;40.53;101372.19;5049689;28;20426;-93
2022/09/20 11:44:40;;;;;;;5.40;4.85;;;;;;;18.01;40.96;101370.72;5017221;28;20034;-94
2022/09/20 11:47:13;;;;;;;0.40;0.30;;;;;;;17.96;41.54;101365.78;5022889;28;20055;-87
2022/09/20 11:50:03;;;;;;;0.70;0.68;;;;;;;18.06;40.63;101379.09;5047707;28;20035;-82
2022/09/20 11:52:37;;;;;;;0.73;0.73;;;;;;;17.95;40.70;101377.22;5049781;28;20513;-87
2022/09/20 11:55:34;;;;;;;0.20;0.20;;;;;;;17.97;40.01;101385.78;5038367;28;20455;-82
2022/09/20 11:58:05;;;;;;;0.40;0.38;;;;;;;17.97;40.41;101364.84;5048177;28;20064;-81
2022/09/20 12:00:34;;;;;;;0.67;0.63;;;;;;;18.00;40.33;101369.91;5031286;28;20037;-79
2022/09/20 12:02:59;;;;;;;0.20;0.20;;;;;;;18.04;40.58;101363.50;5032713;28;20275;-81
2022/09/20 12:05:36;;;;;;;0.40;0.40;;;;;;;18.17;40.13;101370.50;5041892;28;20503;-85
2022/09/20 12:08:15;;;;;;;0.30;0.30;;;;;;;18.23;40.15;101364.84;5033027;28;20032;-81
2022/09/20 12:10:41;;;;;;;0.32;0.32;;;;;;;18.31;40.41;101365.16;5049827;28;20063;-81
2022/09/20 12:13:34;;;;;;;0.60;0.60;;;;;;;18.45;40.03;101358.94;5033110;28;20021;-82
2022/09/20 12:16:03;;;;;;;6.50;5.90;;;;;;;18.74;39.11;101349.06;5047562;28;20036;-80
2022/09/20 12:18:35;;;;;;;1.13;0.70;;;;;;;18.99;38.33;101346.34;5048417;28;20031;-80
2022/09/20 12:21:07;;;;;;;0.47;0.47;;;;;;;18.94;37.81;101337.97;5041213;28;20029;-81
2022/09/20 12:26:19;;;;;;;0.22;0.22;;;;;;;18.82;38.29;101346.72;5049832;28;20037;-90
2022/09/20 12:28:59;;;;;;;0.45;0.40;;;;;;;18.81;38.70;101345.06;5034095;28;20482;-87
2022/09/20 12:31:25;;;;;;;0.52;0.52;;;;;;;18.64;38.59;101330.50;5031421;28;20036;-87
2022/09/20 12:34:00;;;;;;;0.32;0.30;;;;;;;18.65;38.37;101360.19;5050950;28;20528;-87
2022/09/20 12:36:27;;;;;;;0.38;0.32;;;;;;;18.52;39.12;101353.19;5049470;28;20021;-90
